Time;durP1;ratioP1;P1;durP2;ratioP2;P2;SDS_P1;SDS_P2;PMS_P1;PMS_P2;Temp;Humidity;BMP_temperature;BMP_pressure;BME280_temperature;BME280_humidity;BME280_pressure;Samples;Min_cycle;Max_cycle;Signal;HPM_P1;HPM_P2
2022/06/07 05:00:38;;;;;;;2.50;2.30;;;18.50;97.20;;;;;;1726491;28;20641;-69
2022/06/07 05:01:32;;;;;;;2.85;2.38;;;18.50;97.20;;;;;;1726224;28;20200;-69
2022/06/07 05:02:24;;;;;;;6.78;2.10;;;18.50;97.20;;;;;;1725807;28;20243;-69
2022/06/07 05:03:15;;;;;;;2.35;2.00;;;18.50;97.20;;;;;;1724848;28;20200;-69
2022/06/07 05:04:07;;;;;;;2.87;2.33;;;18.40;97.20;;;;;;1725939;28;20287;-70
2022/06/07 05:04:58;;;;;;;2.25;2.05;;;18.40;97.20;;;;;;1726394;28;20436;-69
2022/06/07 05:05:50;;;;;;;2.43;2.23;;;18.40;97.20;;;;;;1726369;28;20199;-70
2022/06/07 05:06:42;;;;;;;2.47;2.22;;;18.40;97.20;;;;;;1720837;28;20197;-69
2022/06/07 05:07:33;;;;;;;2.50;2.30;;;18.40;97.20;;;;;;1720734;28;20611;-69
2022/06/07 05:08:24;;;;;;;3.33;2.50;;;18.40;97.20;;;;;;1723508;28;20661;-69
2022/06/07 05:09:20;;;;;;;4.77;2.30;;;18.30;97.20;;;;;;1724330;28;20804;-68
2022/06/07 05:10:16;;;;;;;2.58;2.38;;;18.30;97.20;;;;;;1719361;28;20452;-68
2022/06/07 05:11:07;;;;;;;2.55;2.20;;;18.30;97.20;;;;;;1724259;28;20260;-69
2022/06/07 05:11:58;;;;;;;2.33;2.13;;;18.30;97.20;;;;;;1726176;28;20197;-68
2022/06/07 05:12:50;;;;;;;2.50;2.30;;;18.30;97.20;;;;;;1723699;28;20860;-69
2022/06/07 05:13:42;;;;;;;2.50;2.30;;;18.30;97.20;;;;;;1723125;28;20212;-69
2022/06/07 05:14:33;;;;;;;9.52;3.20;;;18.20;97.20;;;;;;1719499;28;20205;-68
2022/06/07 05:15:24;;;;;;;2.33;2.17;;;18.20;97.20;;;;;;1724973;28;20427;-68
2022/06/07 05:16:17;;;;;;;2.30;2.10;;;18.20;97.20;;;;;;1725239;28;20203;-68
2022/06/07 05:17:09;;;;;;;2.00;1.90;;;18.20;97.20;;;;;;1725964;28;20204;-68
2022/06/07 05:18:00;;;;;;;3.20;3.00;;;18.20;97.20;;;;;;1726158;28;20196;-68
2022/06/07 05:18:54;;;;;;;2.80;2.60;;;18.20;97.20;;;;;;1720008;28;20190;-68
2022/06/07 05:19:44;;;;;;;2.97;2.70;;;18.20;97.20;;;;;;1719645;28;20202;-68
2022/06/07 05:20:38;;;;;;;2.47;2.30;;;18.20;97.20;;;;;;1721114;28;20193;-68
2022/06/07 05:21:29;;;;;;;2.60;2.17;;;18.20;97.20;;;;;;1724697;28;20199;-68
2022/06/07 05:22:21;;;;;;;2.30;2.13;;;18.20;97.20;;;;;;1725467;28;20285;-68
2022/06/07 05:23:11;;;;;;;2.00;1.90;;;18.20;97.20;;;;;;1724445;28;20684;-69
2022/06/07 05:24:04;;;;;;;2.83;2.63;;;18.20;97.20;;;;;;1723677;28;20709;-68
2022/06/07 05:24:56;;;;;;;3.25;2.60;;;18.20;97.20;;;;;;1719477;28;20240;-68
2022/06/07 05:25:56;;;;;;;2.65;2.22;;;18.20;97.20;;;;;;1719458;28;20197;-68
2022/06/07 05:26:51;;;;;;;2.58;2.17;;;18.10;97.20;;;;;;1721653;28;20200;-68
2022/06/07 05:27:47;;;;;;;4.00;2.38;;;18.10;97.20;;;;;;1722120;28;20657;-68
2022/06/07 05:28:42;;;;;;;2.17;2.08;;;18.10;97.20;;;;;;1725545;28;20192;-68
2022/06/07 05:29:43;;;;;;;2.40;2.20;;;18.10;97.20;;;;;;1719527;28;20201;-68
2022/06/07 05:30:34;;;;;;;3.50;2.63;;;18.10;97.20;;;;;;1723569;28;20193;-68
2022/06/07 05:31:28;;;;;;;3.37;2.20;;;18.10;97.20;;;;;;1720131;28;20279;-68
2022/06/07 05:32:19;;;;;;;2.45;2.25;;;18.10;97.20;;;;;;1719394;28;20197;-68
2022/06/07 05:33:11;;;;;;;2.55;2.35;;;18.10;97.20;;;;;;1720653;28;20889;-68
2022/06/07 05:34:02;;;;;;;2.38;2.17;;;18.20;97.20;;;;;;1726067;28;20963;-68
2022/06/07 05:34:53;;;;;;;3.37;2.70;;;18.20;97.20;;;;;;1725935;28;20710;-68
2022/06/07 05:35:44;;;;;;;2.30;2.17;;;18.20;97.20;;;;;;1724835;28;20208;-68
2022/06/07 05:36:36;;;;;;;2.67;2.10;;;18.20;97.20;;;;;;1725896;28;20198;-68
2022/06/07 05:37:27;;;;;;;3.00;2.30;;;18.20;97.20;;;;;;1719732;28;20591;-68
2022/06/07 05:38:18;;;;;;;2.50;2.20;;;18.20;97.20;;;;;;1719475;28;20641;-68
2022/06/07 05:39:19;;;;;;;2.53;2.33;;;18.20;97.20;;;;;;1719347;28;20220;-68
2022/06/07 05:40:12;;;;;;;2.97;2.15;;;18.20;97.20;;;;;;1724397;28;20197;-68
2022/06/07 05:41:03;;;;;;;2.95;2.63;;;18.20;97.20;;;;;;1725892;28;20204;-68
2022/06/07 05:41:56;;;;;;;2.53;2.33;;;18.30;97.20;;;;;;1726073;28;20228;-68
2022/06/07 05:42:46;;;;;;;2.65;2.45;;;18.30;97.20;;;;;;1726201;28;20201;-68
2022/06/07 05:43:38;;;;;;;2.20;2.10;;;18.20;97.20;;;;;;1721917;28;20724;-68
2022/06/07 05:44:29;;;;;;;3.70;2.20;;;18.20;97.20;;;;;;1719256;28;20209;-69
2022/06/07 05:45:21;;;;;;;2.20;2.00;;;18.20;97.20;;;;;;1721751;28;20284;-68
2022/06/07 05:46:11;;;;;;;2.50;2.30;;;18.20;97.20;;;;;;1724123;28;20591;-68
2022/06/07 05:47:05;;;;;;;2.17;2.07;;;18.30;97.20;;;;;;1722471;28;20200;-68
2022/06/07 05:47:56;;;;;;;2.20;2.10;;;18.30;97.20;;;;;;1722082;28;20192;-68
2022/06/07 05:48:47;;;;;;;2.27;2.10;;;18.30;97.20;;;;;;1726053;28;20202;-68
2022/06/07 05:49:38;;;;;;;1.90;1.80;;;18.30;97.20;;;;;;1725912;28;20232;-68
2022/06/07 05:50:30;;;;;;;2.10;2.00;;;18.30;97.20;;;;;;1722108;28;20201;-68
2022/06/07 05:51:21;;;;;;;2.50;2.05;;;18.30;97.20;;;;;;1724659;28;20232;-68
2022/06/07 05:52:13;;;;;;;2.40;2.20;;;18.30;97.20;;;;;;1723341;28;20193;-69
2022/06/07 05:53:04;;;;;;;2.45;2.25;;;18.30;97.20;;;;;;1721130;28;20238;-68
2022/06/07 05:53:55;;;;;;;2.47;2.28;;;18.30;97.20;;;;;;1725221;28;20219;-68
2022/06/07 05:54:46;;;;;;;2.60;2.42;;;18.30;97.20;;;;;;1721751;28;20201;-68
2022/06/07 05:55:38;;;;;;;2.43;1.90;;;18.30;97.20;;;;;;1725657;28;20221;-68
2022/06/07 05:56:29;;;;;;;2.38;2.17;;;18.30;97.20;;;;;;1725020;28;20201;-69
2022/06/07 05:57:21;;;;;;;3.30;2.23;;;18.40;97.20;;;;;;1725511;28;20236;-68
2022/06/07 05:58:11;;;;;;;2.30;2.10;;;18.40;97.20;;;;;;1725379;28;20455;-69
2022/06/07 05:59:05;;;;;;;2.30;2.20;;;18.40;97.20;;;;;;1720957;28;20286;-69
2022/06/07 05:59:56;;;;;;;2.40;2.28;;;18.40;97.20;;;;;;1724505;28;20219;-68
2022/06/07 06:00:47;;;;;;;3.30;2.40;;;18.40;97.20;;;;;;1719778;28;20197;-69
2022/06/07 06:01:39;;;;;;;2.60;2.40;;;18.40;97.20;;;;;;1724468;28;20465;-68
2022/06/07 06:02:32;;;;;;;3.72;2.17;;;18.40;97.20;;;;;;1726051;28;20201;-68
2022/06/07 06:03:23;;;;;;;3.03;2.28;;;18.40;97.20;;;;;;1725620;28;20207;-68
2022/06/07 06:04:14;;;;;;;2.30;2.20;;;18.40;97.20;;;;;;1719995;28;20287;-69
2022/06/07 06:05:06;;;;;;;5.43;2.50;;;18.40;97.20;;;;;;1723649;28;20671;-69
2022/06/07 06:05:58;;;;;;;2.40;2.20;;;18.40;97.20;;;;;;1723659;28;20196;-68
2022/06/07 06:06:48;;;;;;;1.92;1.83;;;18.40;97.20;;;;;;1722547;28;20205;-69
2022/06/07 06:10:19;;;;;;;2.10;2.00;;;18.40;97.20;;;;;;1723787;28;20280;-69
2022/06/07 06:10:19;;;;;;;5.88;2.20;;;18.40;97.20;;;;;;1722928;28;20257;-68
2022/06/07 06:11:13;;;;;;;2.85;2.13;;;18.40;97.20;;;;;;1721051;28;20197;-68
2022/06/07 06:12:05;;;;;;;2.63;2.40;;;18.40;97.20;;;;;;1726090;28;20246;-68
2022/06/07 06:12:56;;;;;;;2.40;2.20;;;18.40;97.20;;;;;;1726042;28;20656;-69
2022/06/07 06:13:48;;;;;;;2.10;1.90;;;18.40;97.20;;;;;;1722550;28;20662;-69
2022/06/07 06:14:39;;;;;;;6.40;2.67;;;18.40;97.20;;;;;;1719222;28;20194;-69
2022/06/07 06:15:30;;;;;;;3.07;2.20;;;18.40;97.20;;;;;;1725069;28;20347;-68
2022/06/07 06:16:22;;;;;;;2.15;2.05;;;18.40;97.20;;;;;;1725710;28;20443;-69
2022/06/07 06:17:14;;;;;;;4.82;2.35;;;18.40;97.20;;;;;;1721118;28;20296;-69
2022/06/07 06:18:06;;;;;;;3.15;2.20;;;18.50;97.20;;;;;;1723797;28;20207;-68
2022/06/07 06:18:59;;;;;;;6.93;2.58;;;18.50;97.20;;;;;;1725958;28;20207;-68
2022/06/07 06:19:50;;;;;;;2.65;2.30;;;18.50;97.20;;;;;;1726099;28;20201;-69
2022/06/07 06:20:42;;;;;;;2.23;2.13;;;18.50;97.20;;;;;;1725564;28;20193;-69
2022/06/07 06:21:35;;;;;;;7.70;2.67;;;18.50;97.20;;;;;;1725785;28;20201;-68
2022/06/07 06:22:27;;;;;;;2.60;2.40;;;18.50;97.20;;;;;;1725939;28;20196;-69
2022/06/07 06:23:18;;;;;;;2.78;2.58;;;18.50;97.20;;;;;;1725724;28;20204;-68
2022/06/07 06:24:11;;;;;;;3.47;2.20;;;18.50;97.20;;;;;;1725573;28;20287;-69
2022/06/07 06:25:04;;;;;;;5.97;2.20;;;18.50;97.20;;;;;;1719286;28;20208;-68
2022/06/07 06:25:56;;;;;;;2.20;2.00;;;18.50;97.20;;;;;;1720757;28;20192;-68
2022/06/07 06:26:46;;;;;;;4.75;2.03;;;18.50;97.20;;;;;;1722232;28;20680;-69
2022/06/07 06:27:38;;;;;;;2.00;1.80;;;18.60;97.20;;;;;;1721841;28;21914;-68
2022/06/07 06:28:29;;;;;;;2.63;2.40;;;18.60;97.20;;;;;;1725703;28;20200;-69
2022/06/07 06:29:21;;;;;;;2.60;2.40;;;18.60;97.20;;;;;;1720540;28;20292;-68
2022/06/07 06:30:13;;;;;;;2.45;2.28;;;18.60;97.20;;;;;;1725052;28;20197;-69
2022/06/07 06:31:07;;;;;;;2.40;2.20;;;18.60;97.20;;;;;;1763146;22;20221;-73
2022/06/07 06:31:58;;;;;;;4.22;2.17;;;18.60;97.20;;;;;;1757975;28;20667;-73
2022/06/07 06:32:51;;;;;;;2.63;2.43;;;18.60;97.20;;;;;;1759999;28;20631;-73
2022/06/07 06:33:45;;;;;;;2.15;1.98;;;18.60;97.20;;;;;;1761439;28;20341;-74
2022/06/07 06:34:37;;;;;;;2.95;2.55;;;18.60;97.20;;;;;;1761472;28;20552;-73
2022/06/07 06:35:28;;;;;;;4.53;2.45;;;18.60;97.20;;;;;;1761182;28;20624;-73
2022/06/07 06:36:22;;;;;;;2.50;2.27;;;18.60;97.20;;;;;;1761463;28;20202;-73
2022/06/07 06:37:13;;;;;;;2.35;2.08;;;18.70;97.20;;;;;;1761119;28;20660;-74
2022/06/07 06:38:05;;;;;;;2.38;1.80;;;18.70;97.20;;;;;;1761717;28;20708;-73
2022/06/07 06:38:57;;;;;;;2.58;2.35;;;18.70;97.20;;;;;;1759703;28;20232;-74
2022/06/07 06:39:49;;;;;;;2.60;2.40;;;18.70;97.20;;;;;;1759409;28;20188;-73
2022/06/07 06:40:40;;;;;;;3.00;2.63;;;18.80;97.20;;;;;;1762589;28;20201;-73
2022/06/07 06:41:33;;;;;;;2.90;2.30;;;18.80;97.20;;;;;;1757311;28;20280;-73
2022/06/07 06:42:25;;;;;;;2.47;1.90;;;18.80;97.20;;;;;;1755094;28;20209;-74
2022/06/07 06:43:17;;;;;;;2.92;1.98;;;18.90;97.20;;;;;;1755368;28;20198;-73
2022/06/07 06:44:10;;;;;;;2.17;2.03;;;18.90;97.20;;;;;;1757421;28;20199;-73
2022/06/07 06:45:01;;;;;;;1.80;1.70;;;18.90;97.20;;;;;;1760242;28;20691;-74
2022/06/07 06:45:53;;;;;;;2.30;2.10;;;18.90;97.20;;;;;;1758202;28;20748;-74
2022/06/07 06:46:46;;;;;;;3.03;2.33;;;18.90;97.20;;;;;;1762344;28;20923;-74
2022/06/07 06:47:38;;;;;;;5.78;2.65;;;19.00;97.20;;;;;;1758437;28;20194;-74
2022/06/07 06:48:29;;;;;;;2.58;2.28;;;19.00;97.20;;;;;;1762535;28;20230;-73
2022/06/07 06:49:22;;;;;;;2.10;1.90;;;19.00;97.20;;;;;;1762690;28;20280;-73
2022/06/07 06:50:13;;;;;;;2.10;1.90;;;19.10;97.20;;;;;;1762630;28;20205;-73
2022/06/07 06:51:08;;;;;;;2.45;2.25;;;19.10;97.20;;;;;;1752466;28;20211;-73
2022/06/07 06:51:59;;;;;;;1.92;1.83;;;19.10;97.20;;;;;;1756954;28;20230;-73
2022/06/07 06:52:51;;;;;;;4.65;2.53;;;19.10;97.20;;;;;;1762681;28;20197;-74
2022/06/07 06:53:43;;;;;;;5.20;2.85;;;19.10;97.20;;;;;;1758729;28;20213;-73
2022/06/07 06:54:35;;;;;;;2.50;2.10;;;19.10;97.20;;;;;;1755736;28;20236;-74
2022/06/07 06:55:26;;;;;;;2.50;2.00;;;19.10;97.20;;;;;;1762361;28;20197;-74
2022/06/07 06:56:20;;;;;;;2.40;1.95;;;19.10;97.20;;;;;;1762364;28;20205;-73
2022/06/07 06:57:11;;;;;;;1.70;1.60;;;19.20;97.20;;;;;;1753837;28;20205;-74
2022/06/07 06:58:03;;;;;;;4.10;2.37;;;19.20;97.20;;;;;;1748377;28;20274;-73
2022/06/07 06:58:54;;;;;;;2.20;1.60;;;19.20;97.20;;;;;;1757552;28;21142;-73
2022/06/07 06:59:46;;;;;;;2.40;1.50;;;19.20;97.20;;;;;;1757100;28;20642;-73
2022/06/07 07:00:37;;;;;;;1.60;1.50;;;19.30;97.20;;;;;;1753302;28;20194;-73
2022/06/07 07:01:31;;;;;;;5.80;1.80;;;19.30;97.20;;;;;;1755277;28;20697;-73
2022/06/07 07:02:22;;;;;;;1.95;1.83;;;19.40;97.20;;;;;;1755307;28;20550;-73
2022/06/07 07:03:14;;;;;;;2.60;2.40;;;19.40;97.20;;;;;;1754236;28;20193;-73
2022/06/07 07:04:07;;;;;;;2.67;1.63;;;19.40;97.20;;;;;;1754937;28;20194;-73
2022/06/07 07:05:00;;;;;;;1.98;1.88;;;19.40;97.20;;;;;;1755319;28;20190;-73
2022/06/07 07:05:53;;;;;;;2.20;2.00;;;19.40;97.20;;;;;;1755800;28;20198;-73
2022/06/07 07:06:45;;;;;;;2.22;2.00;;;19.40;97.20;;;;;;1759647;28;20200;-73
2022/06/07 07:07:37;;;;;;;2.10;1.90;;;19.40;97.20;;;;;;1762777;28;20189;-73
2022/06/07 07:08:29;;;;;;;4.55;1.73;;;19.40;97.20;;;;;;1762736;28;20212;-74
2022/06/07 07:09:24;;;;;;;2.25;1.75;;;19.40;97.20;;;;;;1762752;28;20221;-74
2022/06/07 07:10:15;;;;;;;1.75;1.65;;;19.40;97.20;;;;;;1762779;28;20209;-74
2022/06/07 07:11:10;;;;;;;2.67;1.57;;;19.40;97.20;;;;;;1762674;28;20225;-74
2022/06/07 07:12:02;;;;;;;1.90;1.75;;;19.40;97.20;;;;;;1762593;28;20193;-74
2022/06/07 07:12:52;;;;;;;2.90;1.50;;;19.40;97.20;;;;;;1762887;28;20197;-74
2022/06/07 07:13:46;;;;;;;2.83;1.77;;;19.40;97.20;;;;;;1759705;28;20201;-73
2022/06/07 07:14:36;;;;;;;2.13;1.77;;;19.40;97.20;;;;;;1755712;28;20202;-73
2022/06/07 07:15:28;;;;;;;4.27;1.63;;;19.40;97.20;;;;;;1755748;28;20202;-73
2022/06/07 07:16:22;;;;;;;3.08;2.00;;;19.50;97.20;;;;;;1755561;28;20230;-73
2022/06/07 07:17:13;;;;;;;3.97;1.85;;;19.50;97.20;;;;;;1755324;28;20201;-73
2022/06/07 07:18:04;;;;;;;1.90;1.80;;;19.50;97.20;;;;;;1755564;28;20204;-73
2022/06/07 07:18:58;;;;;;;1.77;1.52;;;19.50;97.20;;;;;;1755740;28;20290;-73
2022/06/07 07:19:49;;;;;;;1.85;1.75;;;19.40;97.20;;;;;;1755246;28;20230;-73
2022/06/07 07:20:42;;;;;;;3.67;2.00;;;19.40;97.20;;;;;;1753253;28;20269;-73
2022/06/07 07:21:37;;;;;;;1.80;1.70;;;19.40;97.20;;;;;;1755116;28;20193;-73
2022/06/07 07:22:28;;;;;;;1.88;1.75;;;19.40;97.20;;;;;;1755137;28;20198;-73
2022/06/07 07:23:22;;;;;;;2.07;1.87;;;19.50;97.20;;;;;;1754930;28;20229;-73
2022/06/07 07:24:14;;;;;;;4.80;1.83;;;19.50;97.20;;;;;;1755371;28;20205;-73
2022/06/07 07:25:09;;;;;;;1.60;1.50;;;19.50;97.20;;;;;;1754877;28;20194;-73
2022/06/07 07:26:06;;;;;;;4.18;1.77;;;19.50;97.20;;;;;;1751690;28;20190;-74
2022/06/07 07:26:58;;;;;;;2.40;2.20;;;19.60;97.20;;;;;;1755414;28;20201;-73
2022/06/07 07:27:50;;;;;;;2.17;1.60;;;19.60;97.20;;;;;;1753950;28;20202;-73
2022/06/07 07:28:43;;;;;;;1.73;1.63;;;19.60;97.20;;;;;;1755514;28;20194;-73
2022/06/07 07:29:34;;;;;;;2.97;1.80;;;19.60;97.20;;;;;;1755485;28;20204;-73
2022/06/07 07:30:26;;;;;;;2.00;1.80;;;19.70;97.20;;;;;;1755587;28;20198;-74
2022/06/07 07:31:19;;;;;;;2.00;1.60;;;19.70;97.20;;;;;;1755398;28;20226;-73
2022/06/07 07:32:11;;;;;;;1.85;1.75;;;19.80;97.20;;;;;;1754943;28;20254;-73
2022/06/07 07:33:01;;;;;;;2.08;1.70;;;19.80;97.20;;;;;;1755652;28;20201;-73
2022/06/07 07:33:54;;;;;;;3.33;1.80;;;19.80;97.20;;;;;;1755593;28;20194;-73
2022/06/07 07:34:44;;;;;;;1.55;1.45;;;19.80;97.20;;;;;;1755520;28;20198;-73
2022/06/07 07:35:36;;;;;;;2.93;1.90;;;19.80;97.20;;;;;;1755627;28;20190;-73
2022/06/07 07:36:29;;;;;;;1.70;1.60;;;19.80;97.20;;;;;;1755405;28;20222;-73
2022/06/07 07:37:21;;;;;;;2.67;1.67;;;19.80;97.20;;;;;;1755281;28;20213;-73
2022/06/07 07:38:12;;;;;;;1.92;1.60;;;19.80;97.20;;;;;;1755495;28;20225;-73
2022/06/07 07:39:04;;;;;;;2.33;1.60;;;19.90;97.20;;;;;;1755117;28;20284;-73
2022/06/07 07:39:55;;;;;;;3.95;1.50;;;19.90;97.20;;;;;;1755561;28;20473;-73
2022/06/07 07:40:47;;;;;;;5.63;1.50;;;19.90;97.20;;;;;;1755474;28;20202;-73
2022/06/07 07:41:40;;;;;;;1.75;1.65;;;19.90;97.20;;;;;;1755272;28;20266;-73
2022/06/07 07:42:31;;;;;;;2.25;2.05;;;19.90;97.20;;;;;;1755117;28;20189;-73
2022/06/07 07:43:22;;;;;;;1.83;1.73;;;19.90;97.20;;;;;;1755474;28;20198;-74
2022/06/07 07:44:16;;;;;;;2.23;1.67;;;20.00;97.20;;;;;;1755525;28;20198;-73
2022/06/07 07:45:08;;;;;;;2.58;2.15;;;20.00;97.20;;;;;;1755487;28;20475;-72
2022/06/07 07:45:59;;;;;;;2.10;1.90;;;20.00;97.20;;;;;;1755493;28;20247;-72
2022/06/07 07:46:51;;;;;;;3.58;1.60;;;20.10;97.20;;;;;;1754966;28;20205;-73
2022/06/07 07:47:43;;;;;;;3.45;2.45;;;20.10;97.20;;;;;;1734075;28;20212;-73
2022/06/07 07:48:34;;;;;;;2.53;1.40;;;20.20;97.20;;;;;;1734758;28;20621;-73
2022/06/07 07:49:27;;;;;;;2.80;2.00;;;20.20;97.20;;;;;;1734234;28;20541;-73
2022/06/07 07:50:18;;;;;;;3.28;2.58;;;20.30;97.20;;;;;;1734454;28;20210;-73
2022/06/07 07:51:17;;;;;;;2.95;1.90;;;20.30;97.20;;;;;;1734662;28;20223;-73
2022/06/07 07:52:10;;;;;;;2.75;1.35;;;20.30;97.20;;;;;;1734993;28;20691;-75
2022/06/07 07:53:02;;;;;;;2.65;1.55;;;20.30;97.20;;;;;;1734824;28;20616;-73
2022/06/07 07:53:55;;;;;;;2.22;1.60;;;20.30;97.20;;;;;;1734856;28;20204;-72
2022/06/07 07:54:46;;;;;;;1.50;1.40;;;20.40;97.20;;;;;;1734844;28;20215;-73
2022/06/07 07:55:44;;;;;;;2.37;1.20;;;20.40;97.20;;;;;;1734853;28;20722;-72
2022/06/07 07:56:35;;;;;;;2.75;1.65;;;20.40;97.20;;;;;;1734481;28;20852;-73
2022/06/07 07:57:27;;;;;;;3.25;1.35;;;20.40;97.20;;;;;;1734843;28;20675;-73
2022/06/07 07:58:18;;;;;;;2.72;1.60;;;20.50;97.20;;;;;;1734682;28;20215;-73
2022/06/07 07:59:14;;;;;;;2.13;1.50;;;20.40;97.20;;;;;;1734316;28;20303;-73
2022/06/07 08:00:06;;;;;;;1.95;1.50;;;20.40;97.20;;;;;;1733076;28;20931;-73
2022/06/07 08:00:58;;;;;;;3.45;1.33;;;20.40;97.20;;;;;;1727259;28;20248;-72
2022/06/07 08:01:49;;;;;;;1.75;1.40;;;20.40;97.20;;;;;;1727882;28;20216;-72
2022/06/07 08:02:42;;;;;;;3.03;1.30;;;20.40;97.20;;;;;;1727852;28;20206;-73
2022/06/07 08:03:32;;;;;;;2.25;1.38;;;20.50;97.20;;;;;;1727991;28;20684;-73
2022/06/07 08:04:25;;;;;;;2.73;1.37;;;20.50;97.20;;;;;;1727917;28;20546;-73
2022/06/07 08:05:16;;;;;;;1.30;1.13;;;20.50;97.20;;;;;;1727966;28;20220;-73
2022/06/07 08:06:09;;;;;;;1.80;1.13;;;20.60;97.20;;;;;;1727903;28;20231;-73
2022/06/07 08:06:59;;;;;;;2.00;1.20;;;20.60;97.20;;;;;;1727695;28;20208;-73
2022/06/07 08:07:53;;;;;;;1.23;1.13;;;20.70;97.20;;;;;;1727935;28;20231;-73
2022/06/07 08:08:45;;;;;;;3.38;1.45;;;20.70;97.20;;;;;;1727836;28;20213;-73
2022/06/07 08:09:37;;;;;;;1.20;1.10;;;20.70;97.20;;;;;;1728314;28;20203;-73
2022/06/07 08:10:29;;;;;;;1.65;1.30;;;20.80;97.20;;;;;;1734712;28;20203;-72
2022/06/07 08:11:23;;;;;;;2.13;1.35;;;20.80;97.20;;;;;;1734612;28;20737;-72
2022/06/07 08:12:15;;;;;;;1.55;1.42;;;20.80;97.20;;;;;;1734706;28;20204;-73
2022/06/07 08:13:08;;;;;;;2.90;1.77;;;20.90;97.20;;;;;;1734807;28;20226;-72
2022/06/07 08:13:59;;;;;;;5.93;1.58;;;20.90;97.20;;;;;;1734677;28;20287;-72
2022/06/07 08:14:51;;;;;;;1.63;1.52;;;20.90;97.20;;;;;;1734772;28;20202;-73
2022/06/07 08:15:44;;;;;;;3.90;1.20;;;20.90;97.20;;;;;;1734668;28;20211;-72
2022/06/07 08:16:36;;;;;;;2.35;1.23;;;20.90;97.20;;;;;;1734244;28;20318;-73
2022/06/07 08:17:27;;;;;;;1.40;1.30;;;20.90;97.20;;;;;;1734692;28;20226;-72
2022/06/07 08:18:19;;;;;;;1.55;1.30;;;21.00;97.20;;;;;;1734593;28;20191;-73
2022/06/07 08:19:11;;;;;;;1.23;1.13;;;21.00;97.20;;;;;;1734665;28;20204;-72
2022/06/07 08:20:02;;;;;;;3.72;2.03;;;21.00;97.20;;;;;;1734319;28;20207;-73
2022/06/07 08:20:58;;;;;;;2.08;1.23;;;21.00;97.20;;;;;;1734495;28;20679;-72
2022/06/07 08:21:50;;;;;;;2.65;1.50;;;21.00;97.20;;;;;;1734614;28;20203;-73
2022/06/07 08:22:42;;;;;;;1.52;1.42;;;20.90;97.20;;;;;;1734693;28;20250;-73
2022/06/07 08:23:36;;;;;;;4.95;1.60;;;20.90;97.20;;;;;;1734180;28;20353;-73
2022/06/07 08:24:28;;;;;;;1.67;1.15;;;20.80;97.20;;;;;;1734532;28;20249;-73
2022/06/07 08:25:19;;;;;;;2.78;1.52;;;20.80;97.20;;;;;;1734711;28;20301;-73
2022/06/07 08:26:10;;;;;;;1.23;1.08;;;20.80;97.20;;;;;;1734572;28;20290;-72
2022/06/07 08:27:01;;;;;;;2.00;1.30;;;20.70;97.20;;;;;;1734423;28;20203;-73
2022/06/07 08:27:53;;;;;;;3.60;1.48;;;20.70;97.20;;;;;;1734344;28;20207;-72
2022/06/07 08:28:44;;;;;;;1.55;1.05;;;20.70;97.20;;;;;;1734593;28;20200;-72
2022/06/07 08:29:38;;;;;;;2.50;1.13;;;20.70;97.20;;;;;;1734570;28;20253;-72
2022/06/07 08:30:29;;;;;;;2.95;1.20;;;20.70;97.20;;;;;;1734245;28;20207;-73
2022/06/07 08:31:23;;;;;;;1.50;1.20;;;20.70;97.20;;;;;;1734462;28;20224;-73
2022/06/07 08:32:14;;;;;;;1.80;1.00;;;20.70;97.20;;;;;;1734652;28;20857;-73
2022/06/07 08:37:56;;;;;;;1.42;1.10;;;20.80;97.20;;;;;;1719851;28;20189;-73
2022/06/07 08:38:48;;;;;;;1.55;1.05;;;20.80;97.20;;;;;;1725989;28;20212;-73
2022/06/07 08:39:40;;;;;;;1.90;1.25;;;20.80;97.20;;;;;;1734513;28;20203;-72
2022/06/07 08:40:34;;;;;;;3.00;1.20;;;20.80;97.20;;;;;;1734461;28;20672;-73
2022/06/07 08:41:31;;;;;;;1.35;1.10;;;20.80;97.20;;;;;;1734547;28;20196;-73
2022/06/07 08:42:27;;;;;;;2.85;1.27;;;20.90;97.20;;;;;;1734559;28;20203;-73
2022/06/07 08:43:23;;;;;;;1.33;1.10;;;20.90;97.20;;;;;;1734569;28;20215;-73
2022/06/07 08:44:21;;;;;;;2.00;1.52;;;20.90;97.20;;;;;;1734544;28;20203;-73
2022/06/07 08:45:17;;;;;;;2.42;1.42;;;20.90;97.20;;;;;;1734442;28;20242;-72
2022/06/07 08:46:12;;;;;;;1.85;1.00;;;20.90;97.20;;;;;;1734446;28;20200;-73
2022/06/07 08:47:12;;;;;;;1.30;1.10;;;21.00;97.20;;;;;;1734048;28;20274;-73
2022/06/07 08:48:06;;;;;;;1.52;1.20;;;21.00;97.20;;;;;;1734398;28;20207;-73
2022/06/07 08:48:57;;;;;;;2.60;1.15;;;21.00;97.20;;;;;;1734567;28;20196;-73
2022/06/07 08:49:48;;;;;;;4.00;1.10;;;21.00;97.20;;;;;;1734466;28;20203;-73
2022/06/07 08:50:44;;;;;;;1.20;1.00;;;20.90;97.20;;;;;;1734410;28;20278;-73
2022/06/07 08:51:45;;;;;;;1.50;1.13;;;20.90;97.20;;;;;;1734565;28;20476;-73
2022/06/07 08:52:37;;;;;;;2.05;1.30;;;20.90;97.20;;;;;;1734447;28;20258;-73
2022/06/07 08:53:33;;;;;;;3.38;1.30;;;20.90;97.20;;;;;;1734420;28;20204;-72
2022/06/07 08:54:31;;;;;;;1.75;1.40;;;20.80;97.20;;;;;;1734438;28;20208;-73
2022/06/07 08:55:27;;;;;;;1.38;1.27;;;20.80;97.20;;;;;;1734495;28;20204;-72
2022/06/07 08:56:23;;;;;;;1.70;0.90;;;20.70;97.20;;;;;;1734423;28;20202;-73
2022/06/07 08:57:20;;;;;;;2.38;1.27;;;20.70;97.20;;;;;;1727310;28;20200;-73
2022/06/07 08:58:16;;;;;;;2.20;1.10;;;20.70;97.20;;;;;;1727554;28;20200;-73
2022/06/07 08:59:15;;;;;;;1.70;1.20;;;20.70;97.20;;;;;;1727682;28;20639;-73
2022/06/07 09:00:16;;;;;;;2.90;1.30;;;20.70;97.20;;;;;;1727632;28;20197;-72
2022/06/07 09:01:19;;;;;;;1.80;1.30;;;20.60;97.20;;;;;;1727437;28;20225;-73
2022/06/07 09:02:33;;;;;;;1.40;1.30;;;20.70;97.20;;;;;;1727674;28;20216;-73
2022/06/07 09:03:42;;;;;;;1.58;1.20;;;20.70;97.20;;;;;;1727553;28;20254;-72
2022/06/07 09:04:36;;;;;;;1.65;1.13;;;20.70;97.20;;;;;;1727634;28;20725;-73
2022/06/07 09:05:28;;;;;;;1.70;1.25;;;20.70;97.20;;;;;;1727590;28;20575;-72
2022/06/07 09:06:21;;;;;;;2.13;1.50;;;20.70;97.20;;;;;;1727561;28;20212;-72
2022/06/07 09:07:16;;;;;;;1.83;1.13;;;20.80;97.20;;;;;;1733665;28;20729;-73
2022/06/07 09:08:12;;;;;;;1.98;1.65;;;20.80;97.20;;;;;;1734289;28;20208;-73
2022/06/07 09:09:05;;;;;;;3.47;1.33;;;20.90;97.20;;;;;;1734478;28;20199;-73
2022/06/07 09:12:30;;;;;;;1.38;1.05;;;21.00;97.20;;;;;;1734452;28;20202;-73
2022/06/07 09:13:24;;;;;;;1.50;1.10;;;21.00;97.20;;;;;;1734384;28;20206;-73
2022/06/07 09:14:19;;;;;;;2.72;1.40;;;21.10;97.20;;;;;;1734395;28;20204;-73
2022/06/07 09:15:17;;;;;;;1.30;1.17;;;21.10;97.20;;;;;;1734410;28;20636;-73
2022/06/07 09:16:12;;;;;;;1.30;1.20;;;21.10;97.20;;;;;;1734276;28;20583;-73
2022/06/07 09:17:15;;;;;;;1.95;1.10;;;21.10;97.20;;;;;;1733764;28;20228;-73
2022/06/07 09:18:07;;;;;;;1.65;1.10;;;21.20;97.20;;;;;;1734251;28;20211;-73
2022/06/07 09:18:58;;;;;;;1.10;1.00;;;21.20;97.20;;;;;;1734323;28;20192;-72
2022/06/07 09:19:50;;;;;;;1.20;1.05;;;21.30;97.20;;;;;;1734314;28;20683;-73
2022/06/07 09:20:46;;;;;;;1.30;1.20;;;21.30;97.20;;;;;;1734196;28;20195;-72
2022/06/07 09:21:43;;;;;;;3.28;1.10;;;21.40;97.20;;;;;;1734325;28;20266;-73
2022/06/07 09:22:40;;;;;;;1.67;1.30;;;21.40;97.20;;;;;;1734258;28;20287;-72
2022/06/07 09:23:35;;;;;;;1.30;1.05;;;21.50;97.20;;;;;;1734255;28;20663;-72
2022/06/07 09:24:30;;;;;;;1.50;1.00;;;21.50;97.20;;;;;;1734387;28;20207;-73
2022/06/07 09:25:28;;;;;;;4.70;1.30;;;21.60;97.20;;;;;;1734260;28;20204;-72
2022/06/07 09:26:24;;;;;;;2.15;1.20;;;21.60;97.20;;;;;;1734291;28;20298;-72
2022/06/07 09:27:19;;;;;;;3.25;1.38;;;21.60;97.20;;;;;;1733821;28;20183;-73
2022/06/07 09:28:15;;;;;;;1.40;1.30;;;21.50;97.20;;;;;;1734293;28;20208;-73
2022/06/07 09:29:12;;;;;;;2.45;1.33;;;21.50;97.20;;;;;;1734260;28;20203;-72
2022/06/07 09:30:19;;;;;;;2.10;1.30;;;21.50;97.20;;;;;;1734274;28;20192;-72
2022/06/07 09:31:12;;;;;;;1.20;1.10;;;21.50;97.20;;;;;;1734123;28;20246;-72
2022/06/07 09:32:10;;;;;;;1.20;1.10;;;21.40;97.20;;;;;;1734305;28;20223;-72
2022/06/07 09:33:06;;;;;;;2.90;1.30;;;21.40;97.20;;;;;;1734330;28;20233;-73
2022/06/07 09:34:04;;;;;;;1.40;0.93;;;21.30;97.20;;;;;;1734341;28;20196;-73
2022/06/07 09:34:58;;;;;;;2.13;1.30;;;21.30;97.20;;;;;;1734174;28;20656;-72
2022/06/07 09:35:52;;;;;;;1.15;1.02;;;21.30;97.20;;;;;;1734082;28;20235;-72
2022/06/07 09:36:49;;;;;;;3.90;1.38;;;21.30;97.20;;;;;;1733857;28;20211;-73
2022/06/07 09:37:47;;;;;;;1.10;1.00;;;21.40;97.20;;;;;;1731714;28;20203;-72
2022/06/07 09:38:41;;;;;;;1.55;1.30;;;21.40;97.20;;;;;;1734247;28;20257;-73
2022/06/07 09:39:36;;;;;;;2.75;1.20;;;21.30;97.20;;;;;;1734207;28;20682;-72
2022/06/07 09:40:32;;;;;;;2.55;1.20;;;21.40;97.20;;;;;;1733968;28;20188;-72
2022/06/07 09:41:36;;;;;;;1.30;1.20;;;21.40;97.20;;;;;;1734307;28;20719;-72
2022/06/07 09:42:30;;;;;;;2.72;1.10;;;21.30;97.20;;;;;;1734211;28;20567;-72
2022/06/07 09:43:26;;;;;;;1.30;1.20;;;21.40;97.20;;;;;;1734320;28;20212;-73
2022/06/07 09:44:25;;;;;;;2.30;1.20;;;21.40;97.20;;;;;;1734278;28;20211;-72
2022/06/07 09:45:21;;;;;;;2.63;1.20;;;21.40;97.20;;;;;;1734308;28;20211;-73
2022/06/07 09:46:25;;;;;;;3.45;1.30;;;21.50;97.20;;;;;;1734097;28;20199;-73